This is the latest recevied weather packets stored in our database for station/object VE3VGJ. If no packets are shown the sender has not sent any weather packets the latest 10 day(s).
| Time | Temp. | Humidity | Pressure | Rain* | Wind** | Luminosity | Snow |
|---|---|---|---|---|---|---|---|
| 1777881006 | 8.33° C | 75% | 1005.5 hPa | 0 mm | - | 0 W/m² | - |
| 1777880704 | 8.33° C | 74% | 1005.4 hPa | 0 mm | - | 0 W/m² | - |
| 1777880403 | 8.33° C | 74% | 1005.5 hPa | 0 mm | - | 0 W/m² | - |
| 1777880101 | 8.33° C | 75% | 1005.5 hPa | 0 mm | - | 0 W/m² | - |
| 1777879799 | 7.78° C | 75% | 1005.7 hPa | 0 mm | - | 0 W/m² | - |
| 1777879496 | 7.78° C | 76% | 1005.5 hPa | 0 mm | - | 0 W/m² | - |
| 1777879192 | 8.33° C | 75% | 1005.7 hPa | 0 mm | - | 0 W/m² | - |
| 1777878889 | 8.33° C | 75% | 1005.6 hPa | 0 mm | - | 0 W/m² | - |
| 1777878587 | 7.78° C | 77% | 1005.5 hPa | 0 mm | - | 0 W/m² | - |
| 1777878283 | 7.22° C | 79% | 1005.6 hPa | 0 mm | - | 0 W/m² | - |
| 1777877979 | 7.22° C | 81% | 1005.6 hPa | 0 mm | - | 0 W/m² | - |
| 1777877676 | 7.22° C | 81% | 1005.8 hPa | 0 mm | - | 0 W/m² | - |
| 1777877373 | 6.67° C | 81% | 1005.6 hPa | 0 mm | - | 0 W/m² | - |
| 1777877071 | 7.22° C | 80% | 1005.7 hPa | 0 mm | - | 0 W/m² | - |
| 1777876768 | 7.22° C | 81% | 1005.6 hPa | 0 mm | - | 0 W/m² | - |
| 1777876465 | 7.22° C | 81% | 1005.7 hPa | 0 mm | - | 0 W/m² | - |
| 1777876161 | 6.67° C | 82% | 1005.9 hPa | 0 mm | - | 0 W/m² | - |
| 1777875858 | 6.67° C | 85% | 1005.8 hPa | 0 mm | - | 0 W/m² | - |
| 1777875554 | 6.11° C | 91% | 1005.9 hPa | 0 mm | - | 0 W/m² | - |
| 1777875251 | 5.56° C | 94% | 1005.8 hPa | 0 mm | - | 0 W/m² | - |
| 1777874948 | 5.56° C | 94% | 1006.1 hPa | 0 mm | - | 0 W/m² | - |
| 1777874649 | 5.56° C | 94% | 1006.1 hPa | 0 mm | - | 0 W/m² | - |
| 1777874346 | 5.56° C | 94% | 1006 hPa | 0 mm | - | 0 W/m² | - |
| 1777874044 | 5.56° C | 94% | 1006.2 hPa | 0 mm | - | 0 W/m² | - |
| 1777873742 | 5.56° C | 94% | 1006.1 hPa | 0 mm | - | 0 W/m² | - |
* Rain latest hour (hover to see other rain measurements)
** Current wind speed in m/s (hover to see current wind gust speed)